﻿<?xml version="1.0" encoding="UTF-8" standalone="no"?>
<gpx xmlns="http://www.topografix.com/GPX/1/1" xmlns:gpxtpx="http://www.garmin.com/xmlschemas/TrackPointExtension/v1" xmlns:xsi="http://www.w3.org/2001/XMLSchema-instance" creator="Hribi.net" version="1.1" xsi:schemaLocation="http://www.topografix.com/GPX/1/1 http://www.topografix.com/GPX/1/1/gpx.xsd http://www.garmin.com/xmlschemas/TrackPointExtension/v1 http://www.garmin.com/xmlschemas/TrackPointExtensionv1.xsd">
  <metadata>
    <name>GPS sled</name>
    <desc>www.hribi.net</desc>
    <author>
      <name>hribi.net</name>
    </author>
    <link href="http://www.hribi.net">
      <text>Hribi.net</text>
    </link>
  </metadata>
  <trk>
    <trkseg>
      <trkpt lat="46.495485" lon="15.0121834">
        <ele>852.586547851562</ele>
        <time>2003-12-26T14:26:27Z</time>
      </trkpt>
      <trkpt lat="46.49541" lon="15.012075">
        <ele>858.37774658203</ele>
        <time>2003-12-26T14:26:18Z</time>
      </trkpt>
      <trkpt lat="46.495365" lon="15.011955">
        <ele>863.376525878908</ele>
        <time>2003-12-26T14:26:07Z</time>
      </trkpt>
      <trkpt lat="46.4953417" lon="15.0118367">
        <ele>865.296691894532</ele>
        <time>2003-12-26T14:25:58Z</time>
      </trkpt>
      <trkpt lat="46.4953367" lon="15.0116667">
        <ele>864.778564453125</ele>
        <time>2003-12-26T14:25:46Z</time>
      </trkpt>
      <trkpt lat="46.4953633" lon="15.0115434">
        <ele>863.498413085939</ele>
        <time>2003-12-26T14:25:39Z</time>
      </trkpt>
      <trkpt lat="46.495385" lon="15.0114134">
        <ele>863.285034179689</ele>
        <time>2003-12-26T14:25:32Z</time>
      </trkpt>
      <trkpt lat="46.4954" lon="15.011185">
        <ele>0</ele>
        <time>2003-12-26T14:25:24Z</time>
      </trkpt>
      <trkpt lat="46.4954033" lon="15.0110184">
        <ele>861.090515136719</ele>
        <time>2003-12-26T14:25:18Z</time>
      </trkpt>
      <trkpt lat="46.4954" lon="15.01084">
        <ele>859.901733398437</ele>
        <time>2003-12-26T14:25:09Z</time>
      </trkpt>
      <trkpt lat="46.4954067" lon="15.01074">
        <ele>865.875854492189</ele>
        <time>2003-12-26T14:25:01Z</time>
      </trkpt>
      <trkpt lat="46.4954367" lon="15.010615">
        <ele>868.58856201172</ele>
        <time>2003-12-26T14:24:54Z</time>
      </trkpt>
      <trkpt lat="46.495405" lon="15.0105267">
        <ele>869.990661621095</ele>
        <time>2003-12-26T14:24:46Z</time>
      </trkpt>
      <trkpt lat="46.49534" lon="15.010335">
        <ele>869.899169921876</ele>
        <time>2003-12-26T14:24:33Z</time>
      </trkpt>
      <trkpt lat="46.4953267" lon="15.010225">
        <ele>871.788940429688</ele>
        <time>2003-12-26T14:24:18Z</time>
      </trkpt>
      <trkpt lat="46.49537" lon="15.01009">
        <ele>874.776000976564</ele>
        <time>2003-12-26T14:24:11Z</time>
      </trkpt>
      <trkpt lat="46.4953967" lon="15.0099667">
        <ele>879.500427246094</ele>
        <time>2003-12-26T14:24:05Z</time>
      </trkpt>
      <trkpt lat="46.4956733" lon="15.0094517">
        <ele>893.978393554687</ele>
        <time>2003-12-26T14:23:15Z</time>
      </trkpt>
      <trkpt lat="46.49562" lon="15.0091584">
        <ele>895.898681640624</ele>
        <time>2003-12-26T14:22:52Z</time>
      </trkpt>
      <trkpt lat="46.4955533" lon="15.0090684">
        <ele>899.678161621094</ele>
        <time>2003-12-26T14:22:38Z</time>
      </trkpt>
      <trkpt lat="46.49555" lon="15.0090034">
        <ele>902.39093017578</ele>
        <time>2003-12-26T14:22:26Z</time>
      </trkpt>
      <trkpt lat="46.4955633" lon="15.0088817">
        <ele>896.477722167968</ele>
        <time>2003-12-26T14:22:11Z</time>
      </trkpt>
      <trkpt lat="46.4955933" lon="15.008755">
        <ele>898.184631347658</ele>
        <time>2003-12-26T14:22:04Z</time>
      </trkpt>
      <trkpt lat="46.4956433" lon="15.0086217">
        <ele>900.775451660158</ele>
        <time>2003-12-26T14:21:56Z</time>
      </trkpt>
      <trkpt lat="46.495695" lon="15.0084934">
        <ele>901.994628906249</ele>
        <time>2003-12-26T14:21:47Z</time>
      </trkpt>
      <trkpt lat="46.4957333" lon="15.00829">
        <ele>904.097717285157</ele>
        <time>2003-12-26T14:21:36Z</time>
      </trkpt>
      <trkpt lat="46.4957483" lon="15.008175">
        <ele>908.090637207032</ele>
        <time>2003-12-26T14:21:28Z</time>
      </trkpt>
      <trkpt lat="46.4957433" lon="15.0080467">
        <ele>912.99786376953</ele>
        <time>2003-12-26T14:21:18Z</time>
      </trkpt>
      <trkpt lat="46.4957467" lon="15.0078967">
        <ele>916.990783691405</ele>
        <time>2003-12-26T14:21:09Z</time>
      </trkpt>
      <trkpt lat="46.49576" lon="15.007755">
        <ele>921.075073242186</ele>
        <time>2003-12-26T14:21:00Z</time>
      </trkpt>
      <trkpt lat="46.4957683" lon="15.007455">
        <ele>924.001220703126</ele>
        <time>2003-12-26T14:20:46Z</time>
      </trkpt>
      <trkpt lat="46.495815" lon="15.0071917">
        <ele>925.189880371093</ele>
        <time>2003-12-26T14:20:41Z</time>
      </trkpt>
      <trkpt lat="46.495805" lon="15.0070084">
        <ele>926.774902343751</ele>
        <time>2003-12-26T14:20:35Z</time>
      </trkpt>
      <trkpt lat="46.4957867" lon="15.0068684">
        <ele>927.780700683593</ele>
        <time>2003-12-26T14:20:16Z</time>
      </trkpt>
      <trkpt lat="46.4957967" lon="15.0067334">
        <ele>929.396118164063</ele>
        <time>2003-12-26T14:19:58Z</time>
      </trkpt>
      <trkpt lat="46.4957767" lon="15.0065017">
        <ele>933.297607421874</ele>
        <time>2003-12-26T14:19:42Z</time>
      </trkpt>
      <trkpt lat="46.4958117" lon="15.0063267">
        <ele>947.28790283203</ele>
        <time>2003-12-26T14:19:29Z</time>
      </trkpt>
      <trkpt lat="46.4958933" lon="15.006175">
        <ele>0</ele>
        <time>2003-12-26T14:19:27Z</time>
      </trkpt>
      <trkpt lat="46.4959417" lon="15.0060634">
        <ele>957.590148925781</ele>
        <time>2003-12-26T14:19:24Z</time>
      </trkpt>
      <trkpt lat="46.4963767" lon="15.0051117">
        <ele>995.385314941407</ele>
        <time>2003-12-26T14:19:04Z</time>
      </trkpt>
      <trkpt lat="46.4963917" lon="15.0049484">
        <ele>995.385314941407</ele>
        <time>2003-12-26T14:18:58Z</time>
      </trkpt>
      <trkpt lat="46.4963617" lon="15.0048184">
        <ele>995.476806640626</ele>
        <time>2003-12-26T14:18:50Z</time>
      </trkpt>
      <trkpt lat="46.4963033" lon="15.0047">
        <ele>995.293884277343</ele>
        <time>2003-12-26T14:18:35Z</time>
      </trkpt>
      <trkpt lat="46.4962383" lon="15.0046084">
        <ele>995.08056640625</ele>
        <time>2003-12-26T14:18:24Z</time>
      </trkpt>
      <trkpt lat="46.49616" lon="15.0044917">
        <ele>995.385314941407</ele>
        <time>2003-12-26T14:18:12Z</time>
      </trkpt>
      <trkpt lat="46.496175" lon="15.0043634">
        <ele>0</ele>
        <time>2003-12-26T14:18:10Z</time>
      </trkpt>
      <trkpt lat="46.4961817" lon="15.0042317">
        <ele>995.690124511718</ele>
        <time>2003-12-26T14:18:04Z</time>
      </trkpt>
      <trkpt lat="46.4952033" lon="15.0017467">
        <ele>1001.69470214844</ele>
        <time>2003-12-26T14:14:48Z</time>
      </trkpt>
      <trkpt lat="46.4949933" lon="15.0013917">
        <ele>1004.68176269531</ele>
        <time>2003-12-26T14:14:16Z</time>
      </trkpt>
      <trkpt lat="46.494985" lon="15.00123">
        <ele>1004.77319335937</ele>
        <time>2003-12-26T14:14:10Z</time>
      </trkpt>
      <trkpt lat="46.49495" lon="15.0008967">
        <ele>1002.09094238281</ele>
        <time>2003-12-26T14:13:54Z</time>
      </trkpt>
      <trkpt lat="46.494865" lon="15.00096">
        <ele>1001.57281494141</ele>
        <time>2003-12-26T14:13:49Z</time>
      </trkpt>
      <trkpt lat="46.4947683" lon="15.0009934">
        <ele>1002.97491455078</ele>
        <time>2003-12-26T14:13:41Z</time>
      </trkpt>
      <trkpt lat="46.4947067" lon="15.0010484">
        <ele>0</ele>
        <time>2003-12-26T14:13:30Z</time>
      </trkpt>
      <trkpt lat="46.49463" lon="15.0011584">
        <ele>1005.77905273438</ele>
        <time>2003-12-26T14:13:23Z</time>
      </trkpt>
      <trkpt lat="46.4945633" lon="15.00127">
        <ele>1006.388671875</ele>
        <time>2003-12-26T14:13:18Z</time>
      </trkpt>
      <trkpt lat="46.4940617" lon="15.0014617">
        <ele>1004.59027099609</ele>
        <time>2003-12-26T14:12:39Z</time>
      </trkpt>
      <trkpt lat="46.4930433" lon="15.0016134">
        <ele>1002.5786743164</ele>
        <time>2003-12-26T14:10:15Z</time>
      </trkpt>
      <trkpt lat="46.49287" lon="15.0017384">
        <ele>1002.48718261719</ele>
        <time>2003-12-26T14:10:00Z</time>
      </trkpt>
      <trkpt lat="46.4927267" lon="15.001945">
        <ele>1002.48718261719</ele>
        <time>2003-12-26T14:09:50Z</time>
      </trkpt>
      <trkpt lat="46.4926383" lon="15.0021134">
        <ele>1002.48718261719</ele>
        <time>2003-12-26T14:09:49Z</time>
      </trkpt>
      <trkpt lat="46.4927333" lon="15.001485">
        <ele>1002.27386474609</ele>
        <time>2003-12-26T14:09:18Z</time>
      </trkpt>
      <trkpt lat="46.4925983" lon="15.0010467">
        <ele>1001.87762451172</ele>
        <time>2003-12-26T14:08:34Z</time>
      </trkpt>
      <trkpt lat="46.4924067" lon="15.0012184">
        <ele>1001.69470214844</ele>
        <time>2003-12-26T14:08:18Z</time>
      </trkpt>
      <trkpt lat="46.4924383" lon="15.0010717">
        <ele>1001.48132324219</ele>
        <time>2003-12-26T14:07:57Z</time>
      </trkpt>
      <trkpt lat="46.4922133" lon="15.0012017">
        <ele>1001.17657470703</ele>
        <time>2003-12-26T14:07:31Z</time>
      </trkpt>
      <trkpt lat="46.4920017" lon="15.0012534">
        <ele>1000.90228271484</ele>
        <time>2003-12-26T14:07:15Z</time>
      </trkpt>
      <trkpt lat="46.4917667" lon="15.0012184">
        <ele>1000.47546386719</ele>
        <time>2003-12-26T14:06:53Z</time>
      </trkpt>
      <trkpt lat="46.4914567" lon="15.001225">
        <ele>0</ele>
        <time>2003-12-26T14:06:27Z</time>
      </trkpt>
      <trkpt lat="46.4913617" lon="15.0013234">
        <ele>1003.18823242188</ele>
        <time>2003-12-26T14:06:22Z</time>
      </trkpt>
      <trkpt lat="46.4912767" lon="15.0013984">
        <ele>1003.18823242188</ele>
        <time>2003-12-26T14:06:16Z</time>
      </trkpt>
      <trkpt lat="46.4910117" lon="15.0019417">
        <ele>1001.87762451172</ele>
        <time>2003-12-26T14:05:40Z</time>
      </trkpt>
      <trkpt lat="46.4907667" lon="15.0016167">
        <ele>0</ele>
        <time>2003-12-26T14:05:13Z</time>
      </trkpt>
      <trkpt lat="46.4907833" lon="15.0014834">
        <ele>1002.18237304687</ele>
        <time>2003-12-26T14:05:08Z</time>
      </trkpt>
      <trkpt lat="46.49082" lon="15.00135">
        <ele>1002.97491455078</ele>
        <time>2003-12-26T14:05:06Z</time>
      </trkpt>
      <trkpt lat="46.4905217" lon="15.00141">
        <ele>1000.68890380859</ele>
        <time>2003-12-26T14:04:47Z</time>
      </trkpt>
      <trkpt lat="46.49047" lon="15.00141">
        <ele>1000.99371337891</ele>
        <time>2003-12-26T14:04:37Z</time>
      </trkpt>
      <trkpt lat="46.4901583" lon="15.00118">
        <ele>996.086425781249</ele>
        <time>2003-12-26T14:03:55Z</time>
      </trkpt>
      <trkpt lat="46.4901067" lon="15.0010817">
        <ele>995.873046874999</ele>
        <time>2003-12-26T14:03:46Z</time>
      </trkpt>
      <trkpt lat="46.490165" lon="15.0006384">
        <ele>993.891845703125</ele>
        <time>2003-12-26T14:03:23Z</time>
      </trkpt>
      <trkpt lat="46.49019" lon="15.0004584">
        <ele>995.476806640626</ele>
        <time>2003-12-26T14:03:12Z</time>
      </trkpt>
      <trkpt lat="46.4901583" lon="15.0003167">
        <ele>992.276428222657</ele>
        <time>2003-12-26T14:03:01Z</time>
      </trkpt>
      <trkpt lat="46.4901383" lon="15.0001767">
        <ele>990.996276855468</ele>
        <time>2003-12-26T14:02:54Z</time>
      </trkpt>
      <trkpt lat="46.4900667" lon="14.9996467">
        <ele>989.990417480469</ele>
        <time>2003-12-26T14:02:30Z</time>
      </trkpt>
      <trkpt lat="46.490055" lon="14.999635">
        <ele>999.286804199217</ele>
        <time>2003-12-26T14:02:19Z</time>
      </trkpt>
      <trkpt lat="46.4900417" lon="14.99973">
        <ele>1006.87628173828</ele>
        <time>2003-12-26T14:02:13Z</time>
      </trkpt>
      <trkpt lat="46.48996" lon="14.9996567">
        <ele>1010.99108886719</ele>
        <time>2003-12-26T14:02:05Z</time>
      </trkpt>
      <trkpt lat="46.4898783" lon="14.9996917">
        <ele>1018.48919677734</ele>
        <time>2003-12-26T14:01:56Z</time>
      </trkpt>
      <trkpt lat="46.4898" lon="14.9996284">
        <ele>1022.57348632813</ele>
        <time>2003-12-26T14:01:48Z</time>
      </trkpt>
      <trkpt lat="46.4897467" lon="14.9994417">
        <ele>1021.08001708984</ele>
        <time>2003-12-26T14:01:37Z</time>
      </trkpt>
      <trkpt lat="46.489685" lon="14.9993417">
        <ele>1019.79986572266</ele>
        <time>2003-12-26T14:01:27Z</time>
      </trkpt>
      <trkpt lat="46.48962" lon="14.999245">
        <ele>1026.07873535156</ele>
        <time>2003-12-26T14:01:14Z</time>
      </trkpt>
      <trkpt lat="46.4895417" lon="14.9992284">
        <ele>1034.18640136719</ele>
        <time>2003-12-26T14:01:02Z</time>
      </trkpt>
      <trkpt lat="46.48946" lon="14.9992567">
        <ele>1032.17468261719</ele>
        <time>2003-12-26T14:00:52Z</time>
      </trkpt>
      <trkpt lat="46.4894117" lon="14.9991534">
        <ele>1036.68579101563</ele>
        <time>2003-12-26T14:00:43Z</time>
      </trkpt>
      <trkpt lat="46.4893117" lon="14.999185">
        <ele>1038.30114746094</ele>
        <time>2003-12-26T14:00:29Z</time>
      </trkpt>
      <trkpt lat="46.489215" lon="14.9991384">
        <ele>1043.48278808594</ele>
        <time>2003-12-26T14:00:17Z</time>
      </trkpt>
      <trkpt lat="46.4891783" lon="14.9990184">
        <ele>1049.70068359375</ele>
        <time>2003-12-26T14:00:05Z</time>
      </trkpt>
      <trkpt lat="46.48916" lon="14.9988834">
        <ele>1049.4873046875</ele>
        <time>2003-12-26T13:59:58Z</time>
      </trkpt>
      <trkpt lat="46.489115" lon="14.9987634">
        <ele>1052.20007324219</ele>
        <time>2003-12-26T13:59:49Z</time>
      </trkpt>
      <trkpt lat="46.4890617" lon="14.99863">
        <ele>1059.48474121094</ele>
        <time>2003-12-26T13:59:36Z</time>
      </trkpt>
      <trkpt lat="46.489005" lon="14.9985217">
        <ele>1061.10021972656</ele>
        <time>2003-12-26T13:59:29Z</time>
      </trkpt>
      <trkpt lat="46.4889267" lon="14.9984684">
        <ele>1063.47766113281</ele>
        <time>2003-12-26T13:59:23Z</time>
      </trkpt>
      <trkpt lat="46.4888783" lon="14.9983584">
        <ele>1061.80126953125</ele>
        <time>2003-12-26T13:59:15Z</time>
      </trkpt>
      <trkpt lat="46.488845" lon="14.9982184">
        <ele>1059.97253417969</ele>
        <time>2003-12-26T13:59:06Z</time>
      </trkpt>
      <trkpt lat="46.488855" lon="14.9980667">
        <ele>1057.29028320313</ele>
        <time>2003-12-26T13:59:02Z</time>
      </trkpt>
      <trkpt lat="46.4889033" lon="14.997895">
        <ele>1055.58337402344</ele>
        <time>2003-12-26T13:59:00Z</time>
      </trkpt>
      <trkpt lat="46.4888367" lon="14.997815">
        <ele>1057.07690429688</ele>
        <time>2003-12-26T13:58:50Z</time>
      </trkpt>
      <trkpt lat="46.4887583" lon="14.9977567">
        <ele>1057.29028320313</ele>
        <time>2003-12-26T13:58:41Z</time>
      </trkpt>
      <trkpt lat="46.4887217" lon="14.9976434">
        <ele>1060.09436035156</ele>
        <time>2003-12-26T13:58:32Z</time>
      </trkpt>
      <trkpt lat="46.4887117" lon="14.9975117">
        <ele>1059.18005371094</ele>
        <time>2003-12-26T13:58:25Z</time>
      </trkpt>
      <trkpt lat="46.4886783" lon="14.9973667">
        <ele>1061.49645996094</ele>
        <time>2003-12-26T13:58:16Z</time>
      </trkpt>
      <trkpt lat="46.48865" lon="14.9972084">
        <ele>1060.39916992188</ele>
        <time>2003-12-26T13:58:09Z</time>
      </trkpt>
      <trkpt lat="46.4886083" lon="14.9970517">
        <ele>1059.57629394531</ele>
        <time>2003-12-26T13:57:59Z</time>
      </trkpt>
      <trkpt lat="46.4885733" lon="14.9969017">
        <ele>1062.07556152344</ele>
        <time>2003-12-26T13:57:49Z</time>
      </trkpt>
      <trkpt lat="46.4885483" lon="14.996695">
        <ele>1064.69689941406</ele>
        <time>2003-12-26T13:57:37Z</time>
      </trkpt>
      <trkpt lat="46.4885583" lon="14.9965534">
        <ele>1065.67224121094</ele>
        <time>2003-12-26T13:57:29Z</time>
      </trkpt>
      <trkpt lat="46.4885533" lon="14.9964217">
        <ele>1066.80004882812</ele>
        <time>2003-12-26T13:57:21Z</time>
      </trkpt>
      <trkpt lat="46.4885517" lon="14.996285">
        <ele>1066.80004882812</ele>
        <time>2003-12-26T13:57:12Z</time>
      </trkpt>
      <trkpt lat="46.488495" lon="14.9960467">
        <ele>1071.18908691406</ele>
        <time>2003-12-26T13:56:57Z</time>
      </trkpt>
      <trkpt lat="46.4884667" lon="14.9959117">
        <ele>1075.18200683594</ele>
        <time>2003-12-26T13:56:48Z</time>
      </trkpt>
      <trkpt lat="46.4884267" lon="14.9957317">
        <ele>1072.89599609375</ele>
        <time>2003-12-26T13:56:37Z</time>
      </trkpt>
      <trkpt lat="46.4884083" lon="14.9955684">
        <ele>1070.39660644531</ele>
        <time>2003-12-26T13:56:30Z</time>
      </trkpt>
      <trkpt lat="46.48836" lon="14.99548">
        <ele>1068.29345703125</ele>
        <time>2003-12-26T13:56:23Z</time>
      </trkpt>
      <trkpt lat="46.4883217" lon="14.9953867">
        <ele>1070.70141601563</ele>
        <time>2003-12-26T13:56:11Z</time>
      </trkpt>
      <trkpt lat="46.4881817" lon="14.9953417">
        <ele>1071.18908691406</ele>
        <time>2003-12-26T13:56:01Z</time>
      </trkpt>
      <trkpt lat="46.4880867" lon="14.99529">
        <ele>1071.79870605469</ele>
        <time>2003-12-26T13:55:52Z</time>
      </trkpt>
      <trkpt lat="46.4879833" lon="14.9953384">
        <ele>1074.29809570313</ele>
        <time>2003-12-26T13:55:45Z</time>
      </trkpt>
      <trkpt lat="46.4879133" lon="14.9952817">
        <ele>1074.78576660156</ele>
        <time>2003-12-26T13:55:38Z</time>
      </trkpt>
      <trkpt lat="46.4878317" lon="14.9951984">
        <ele>1077.37658691406</ele>
        <time>2003-12-26T13:55:28Z</time>
      </trkpt>
      <trkpt lat="46.4878317" lon="14.99504">
        <ele>1074.87719726562</ele>
        <time>2003-12-26T13:55:21Z</time>
      </trkpt>
      <trkpt lat="46.4878483" lon="14.99488">
        <ele>1076.279296875</ele>
        <time>2003-12-26T13:55:13Z</time>
      </trkpt>
      <trkpt lat="46.4878667" lon="14.9947517">
        <ele>1080.39416503906</ele>
        <time>2003-12-26T13:55:08Z</time>
      </trkpt>
      <trkpt lat="46.4878767" lon="14.9946217">
        <ele>1082.98486328125</ele>
        <time>2003-12-26T13:55:00Z</time>
      </trkpt>
      <trkpt lat="46.4878717" lon="14.9944884">
        <ele>1083.28967285156</ele>
        <time>2003-12-26T13:54:54Z</time>
      </trkpt>
      <trkpt lat="46.4878067" lon="14.994395">
        <ele>1079.08349609375</ele>
        <time>2003-12-26T13:54:46Z</time>
      </trkpt>
      <trkpt lat="46.4878283" lon="14.994265">
        <ele>1076.88891601563</ele>
        <time>2003-12-26T13:54:42Z</time>
      </trkpt>
      <trkpt lat="46.4877517" lon="14.9942484">
        <ele>1078.07763671875</ele>
        <time>2003-12-26T13:54:35Z</time>
      </trkpt>
      <trkpt lat="46.487655" lon="14.9942067">
        <ele>1080.1806640625</ele>
        <time>2003-12-26T13:54:27Z</time>
      </trkpt>
      <trkpt lat="46.4875783" lon="14.9941484">
        <ele>1082.68005371094</ele>
        <time>2003-12-26T13:54:18Z</time>
      </trkpt>
      <trkpt lat="46.4875367" lon="14.9940334">
        <ele>1086.88623046875</ele>
        <time>2003-12-26T13:54:10Z</time>
      </trkpt>
      <trkpt lat="46.4875333" lon="14.99389">
        <ele>1084.17358398438</ele>
        <time>2003-12-26T13:54:03Z</time>
      </trkpt>
      <trkpt lat="46.487515" lon="14.9937784">
        <ele>1083.59448242187</ele>
        <time>2003-12-26T13:53:57Z</time>
      </trkpt>
      <trkpt lat="46.4874933" lon="14.9936384">
        <ele>1085.48425292969</ele>
        <time>2003-12-26T13:53:48Z</time>
      </trkpt>
      <trkpt lat="46.487445" lon="14.9935334">
        <ele>1084.29553222656</ele>
        <time>2003-12-26T13:53:41Z</time>
      </trkpt>
      <trkpt lat="46.487455" lon="14.9933884">
        <ele>1082.1923828125</ele>
        <time>2003-12-26T13:53:35Z</time>
      </trkpt>
      <trkpt lat="46.4874233" lon="14.99283">
        <ele>1093.287109375</ele>
        <time>2003-12-26T13:52:21Z</time>
      </trkpt>
      <trkpt lat="46.4873883" lon="14.9927017">
        <ele>1096.18273925781</ele>
        <time>2003-12-26T13:52:14Z</time>
      </trkpt>
      <trkpt lat="46.487375" lon="14.992515">
        <ele>1095.08544921875</ele>
        <time>2003-12-26T13:52:04Z</time>
      </trkpt>
      <trkpt lat="46.4874117" lon="14.99231">
        <ele>1091.48876953125</ele>
        <time>2003-12-26T13:51:55Z</time>
      </trkpt>
      <trkpt lat="46.4874133" lon="14.9921634">
        <ele>1092.49462890625</ele>
        <time>2003-12-26T13:51:48Z</time>
      </trkpt>
      <trkpt lat="46.4874033" lon="14.9920284">
        <ele>1095.08544921875</ele>
        <time>2003-12-26T13:51:40Z</time>
      </trkpt>
      <trkpt lat="46.4874" lon="14.9918967">
        <ele>1092.98229980469</ele>
        <time>2003-12-26T13:51:31Z</time>
      </trkpt>
      <trkpt lat="46.487415" lon="14.9917667">
        <ele>1096.97521972656</ele>
        <time>2003-12-26T13:51:24Z</time>
      </trkpt>
      <trkpt lat="46.487445" lon="14.99164">
        <ele>1098.8955078125</ele>
        <time>2003-12-26T13:51:17Z</time>
      </trkpt>
      <trkpt lat="46.487455" lon="14.991505">
        <ele>1100.38891601563</ele>
        <time>2003-12-26T13:51:09Z</time>
      </trkpt>
      <trkpt lat="46.48744" lon="14.9913767">
        <ele>1105.47912597656</ele>
        <time>2003-12-26T13:51:00Z</time>
      </trkpt>
      <trkpt lat="46.4874067" lon="14.9911867">
        <ele>1105.87536621094</ele>
        <time>2003-12-26T13:50:50Z</time>
      </trkpt>
      <trkpt lat="46.4873667" lon="14.9910734">
        <ele>0</ele>
        <time>2003-12-26T13:50:43Z</time>
      </trkpt>
      <trkpt lat="46.4873917" lon="14.99092">
        <ele>1099.59655761719</ele>
        <time>2003-12-26T13:50:37Z</time>
      </trkpt>
      <trkpt lat="46.487425" lon="14.9907817">
        <ele>1095.99987792969</ele>
        <time>2003-12-26T13:50:30Z</time>
      </trkpt>
      <trkpt lat="46.487425" lon="14.9906584">
        <ele>1101.39477539062</ele>
        <time>2003-12-26T13:50:19Z</time>
      </trkpt>
      <trkpt lat="46.4874167" lon="14.9905267">
        <ele>1107.09460449219</ele>
        <time>2003-12-26T13:50:11Z</time>
      </trkpt>
      <trkpt lat="46.4874333" lon="14.9903884">
        <ele>1110.38635253906</ele>
        <time>2003-12-26T13:50:05Z</time>
      </trkpt>
      <trkpt lat="46.4874817" lon="14.9902517">
        <ele>1111.78845214844</ele>
        <time>2003-12-26T13:50:00Z</time>
      </trkpt>
      <trkpt lat="46.4874167" lon="14.9902134">
        <ele>1118.89025878906</ele>
        <time>2003-12-26T13:49:53Z</time>
      </trkpt>
      <trkpt lat="46.487325" lon="14.99023">
        <ele>1118.98168945313</ele>
        <time>2003-12-26T13:49:49Z</time>
      </trkpt>
      <trkpt lat="46.4873433" lon="14.9900884">
        <ele>1119.98754882812</ele>
        <time>2003-12-26T13:49:44Z</time>
      </trkpt>
      <trkpt lat="46.487435" lon="14.9899417">
        <ele>1123.4013671875</ele>
        <time>2003-12-26T13:49:41Z</time>
      </trkpt>
      <trkpt lat="46.4874767" lon="14.9898234">
        <ele>1127.18090820313</ele>
        <time>2003-12-26T13:49:36Z</time>
      </trkpt>
      <trkpt lat="46.487445" lon="14.9896834">
        <ele>1129.77172851563</ele>
        <time>2003-12-26T13:49:27Z</time>
      </trkpt>
      <trkpt lat="46.48742" lon="14.9895517">
        <ele>1131.08227539062</ele>
        <time>2003-12-26T13:49:20Z</time>
      </trkpt>
      <trkpt lat="46.4873567" lon="14.9894567">
        <ele>1127.5771484375</ele>
        <time>2003-12-26T13:49:08Z</time>
      </trkpt>
      <trkpt lat="46.4872633" lon="14.9895367">
        <ele>1124.28527832031</ele>
        <time>2003-12-26T13:49:07Z</time>
      </trkpt>
      <trkpt lat="46.4871583" lon="14.98967">
        <ele>1116.08618164063</ele>
        <time>2003-12-26T13:48:51Z</time>
      </trkpt>
      <trkpt lat="46.4871917" lon="14.9895717">
        <ele>1114.50122070313</ele>
        <time>2003-12-26T13:48:38Z</time>
      </trkpt>
      <trkpt lat="46.4871733" lon="14.989445">
        <ele>1116.39099121094</ele>
        <time>2003-12-26T13:48:30Z</time>
      </trkpt>
      <trkpt lat="46.4871717" lon="14.98931">
        <ele>1118.79895019531</ele>
        <time>2003-12-26T13:48:23Z</time>
      </trkpt>
      <trkpt lat="46.487145" lon="14.9891834">
        <ele>1116.78723144531</ele>
        <time>2003-12-26T13:48:14Z</time>
      </trkpt>
      <trkpt lat="46.4870933" lon="14.9890784">
        <ele>1115.87280273438</ele>
        <time>2003-12-26T13:48:06Z</time>
      </trkpt>
      <trkpt lat="46.48707" lon="14.98893">
        <ele>1117.70166015625</ele>
        <time>2003-12-26T13:47:57Z</time>
      </trkpt>
      <trkpt lat="46.4870267" lon="14.9888017">
        <ele>1117.18347167969</ele>
        <time>2003-12-26T13:47:49Z</time>
      </trkpt>
      <trkpt lat="46.48701" lon="14.988615">
        <ele>1118.79895019531</ele>
        <time>2003-12-26T13:47:40Z</time>
      </trkpt>
      <trkpt lat="46.4870133" lon="14.9884784">
        <ele>1124.37670898438</ele>
        <time>2003-12-26T13:47:31Z</time>
      </trkpt>
      <trkpt lat="46.4870333" lon="14.9883384">
        <ele>1128.8876953125</ele>
        <time>2003-12-26T13:47:24Z</time>
      </trkpt>
      <trkpt lat="46.4869867" lon="14.9882284">
        <ele>1128.49145507812</ele>
        <time>2003-12-26T13:47:17Z</time>
      </trkpt>
      <trkpt lat="46.4869383" lon="14.988115">
        <ele>1128.40014648438</ele>
        <time>2003-12-26T13:47:10Z</time>
      </trkpt>
      <trkpt lat="46.4869083" lon="14.9879934">
        <ele>1128.40014648438</ele>
        <time>2003-12-26T13:47:04Z</time>
      </trkpt>
      <trkpt lat="46.4868533" lon="14.9878784">
        <ele>1128.8876953125</ele>
        <time>2003-12-26T13:46:56Z</time>
      </trkpt>
      <trkpt lat="46.4867917" lon="14.9878084">
        <ele>1128.8876953125</ele>
        <time>2003-12-26T13:46:48Z</time>
      </trkpt>
      <trkpt lat="46.4867317" lon="14.98771">
        <ele>1128.18664550781</ele>
        <time>2003-12-26T13:46:41Z</time>
      </trkpt>
      <trkpt lat="46.4866667" lon="14.987605">
        <ele>1128.8876953125</ele>
        <time>2003-12-26T13:46:33Z</time>
      </trkpt>
      <trkpt lat="46.4866683" lon="14.9874534">
        <ele>1129.98510742188</ele>
        <time>2003-12-26T13:46:25Z</time>
      </trkpt>
      <trkpt lat="46.4866767" lon="14.9873034">
        <ele>1131.38708496094</ele>
        <time>2003-12-26T13:46:18Z</time>
      </trkpt>
      <trkpt lat="46.4866733" lon="14.987165">
        <ele>1131.87475585938</ele>
        <time>2003-12-26T13:46:12Z</time>
      </trkpt>
      <trkpt lat="46.4867183" lon="14.9869867">
        <ele>1130.99096679688</ele>
        <time>2003-12-26T13:46:06Z</time>
      </trkpt>
      <trkpt lat="46.4867533" lon="14.9868617">
        <ele>1129.58874511719</ele>
        <time>2003-12-26T13:45:58Z</time>
      </trkpt>
      <trkpt lat="46.486835" lon="14.9867967">
        <ele>1131.478515625</ele>
        <time>2003-12-26T13:45:48Z</time>
      </trkpt>
      <trkpt lat="46.4868867" lon="14.98668">
        <ele>1133.09399414063</ele>
        <time>2003-12-26T13:45:40Z</time>
      </trkpt>
      <trkpt lat="46.48689" lon="14.9865267">
        <ele>1139.79956054687</ele>
        <time>2003-12-26T13:45:28Z</time>
      </trkpt>
      <trkpt lat="46.486865" lon="14.986395">
        <ele>1146.20043945313</ele>
        <time>2003-12-26T13:45:20Z</time>
      </trkpt>
      <trkpt lat="46.486885" lon="14.9862684">
        <ele>1148.39489746094</ele>
        <time>2003-12-26T13:45:10Z</time>
      </trkpt>
      <trkpt lat="46.4869983" lon="14.9860684">
        <ele>1147.48059082031</ele>
        <time>2003-12-26T13:44:56Z</time>
      </trkpt>
      <trkpt lat="46.4870483" lon="14.9859417">
        <ele>1147.29772949219</ele>
        <time>2003-12-26T13:44:49Z</time>
      </trkpt>
      <trkpt lat="46.4870733" lon="14.985805">
        <ele>1149.58374023438</ele>
        <time>2003-12-26T13:44:42Z</time>
      </trkpt>
      <trkpt lat="46.4870796203613" lon="14.9856281280518">
        <ele>1148.27307128906</ele>
        <time>2003-12-26T13:42:25Z</time>
      </trkpt>
      <trkpt lat="46.4869167" lon="14.9856217">
        <ele>1140.77490234375</ele>
        <time>2003-12-26T13:42:12Z</time>
      </trkpt>
      <trkpt lat="46.48697" lon="14.985725">
        <ele>1147.29772949219</ele>
        <time>2003-12-26T13:42:07Z</time>
      </trkpt>
      <trkpt lat="46.48691" lon="14.9858084">
        <ele>1154.58239746094</ele>
        <time>2003-12-26T13:41:57Z</time>
      </trkpt>
      <trkpt lat="46.48689" lon="14.98593">
        <ele>1158.78869628906</ele>
        <time>2003-12-26T13:41:47Z</time>
      </trkpt>
      <trkpt lat="46.4868433" lon="14.9859867">
        <ele>1171.19396972656</ele>
        <time>2003-12-26T13:41:36Z</time>
      </trkpt>
      <trkpt lat="46.4867667" lon="14.9860434">
        <ele>1175.88793945313</ele>
        <time>2003-12-26T13:41:29Z</time>
      </trkpt>
      <trkpt lat="46.486745" lon="14.9860867">
        <ele>1184.57470703125</ele>
        <time>2003-12-26T13:41:18Z</time>
      </trkpt>
      <trkpt lat="46.4867067" lon="14.9859217">
        <ele>1183.38598632813</ele>
        <time>2003-12-26T13:41:08Z</time>
      </trkpt>
      <trkpt lat="46.4866817" lon="14.9858217">
        <ele>1187.37890625</ele>
        <time>2003-12-26T13:40:57Z</time>
      </trkpt>
      <trkpt lat="46.486695" lon="14.9853517">
        <ele>1191.09741210937</ele>
        <time>2003-12-26T13:40:26Z</time>
      </trkpt>
      <trkpt lat="46.4867133" lon="14.9851867">
        <ele>1187.19604492188</ele>
        <time>2003-12-26T13:40:18Z</time>
      </trkpt>
      <trkpt lat="46.4867083" lon="14.984965">
        <ele>1187.98852539062</ele>
        <time>2003-12-26T13:40:09Z</time>
      </trkpt>
      <trkpt lat="46.48678" lon="14.9846167">
        <ele>1179.69787597656</ele>
        <time>2003-12-26T13:39:58Z</time>
      </trkpt>
      <trkpt lat="46.4867733" lon="14.9844034">
        <ele>1179.1796875</ele>
        <time>2003-12-26T13:39:40Z</time>
      </trkpt>
      <trkpt lat="46.4868117" lon="14.9842684">
        <ele>1183.7822265625</ele>
        <time>2003-12-26T13:39:33Z</time>
      </trkpt>
      <trkpt lat="46.4868233" lon="14.9843367">
        <ele>1187.89709472656</ele>
        <time>2003-12-26T13:39:24Z</time>
      </trkpt>
      <trkpt lat="46.4868417" lon="14.9841667">
        <ele>1181.58776855469</ele>
        <time>2003-12-26T13:39:13Z</time>
      </trkpt>
      <trkpt lat="46.4868517" lon="14.9840417">
        <ele>1186.49499511719</ele>
        <time>2003-12-26T13:39:04Z</time>
      </trkpt>
      <trkpt lat="46.4868983" lon="14.98401">
        <ele>1196.58386230469</ele>
        <time>2003-12-26T13:38:46Z</time>
      </trkpt>
      <trkpt lat="46.4869367" lon="14.983955">
        <ele>1206.9775390625</ele>
        <time>2003-12-26T13:38:30Z</time>
      </trkpt>
      <trkpt lat="46.4869333" lon="14.983855">
        <ele>1205.88024902344</ele>
        <time>2003-12-26T13:38:21Z</time>
      </trkpt>
      <trkpt lat="46.4868783" lon="14.9837167">
        <ele>1205.17919921875</ele>
        <time>2003-12-26T13:38:12Z</time>
      </trkpt>
      <trkpt lat="46.4868217" lon="14.9836084">
        <ele>1209.99499511719</ele>
        <time>2003-12-26T13:38:01Z</time>
      </trkpt>
      <trkpt lat="46.4868367" lon="14.9835867">
        <ele>1214.29272460937</ele>
        <time>2003-12-26T13:37:51Z</time>
      </trkpt>
      <trkpt lat="46.4868333" lon="14.9833434">
        <ele>1216.4873046875</ele>
        <time>2003-12-26T13:37:36Z</time>
      </trkpt>
      <trkpt lat="46.48682" lon="14.983195">
        <ele>1216.97497558594</ele>
        <time>2003-12-26T13:37:26Z</time>
      </trkpt>
      <trkpt lat="46.4868233" lon="14.9830634">
        <ele>1215.4814453125</ele>
        <time>2003-12-26T13:37:20Z</time>
      </trkpt>
      <trkpt lat="46.4868533" lon="14.9829417">
        <ele>1213.28686523438</ele>
        <time>2003-12-26T13:37:09Z</time>
      </trkpt>
      <trkpt lat="46.4868867" lon="14.9828367">
        <ele>1217.18823242187</ele>
        <time>2003-12-26T13:36:53Z</time>
      </trkpt>
      <trkpt lat="46.48691" lon="14.9827067">
        <ele>1224.38159179688</ele>
        <time>2003-12-26T13:36:42Z</time>
      </trkpt>
      <trkpt lat="46.4869433" lon="14.9825784">
        <ele>1224.59497070313</ele>
        <time>2003-12-26T13:36:36Z</time>
      </trkpt>
      <trkpt lat="46.486945" lon="14.9824267">
        <ele>1235.38488769531</ele>
        <time>2003-12-26T13:36:20Z</time>
      </trkpt>
      <trkpt lat="46.4868883" lon="14.982275">
        <ele>1232.97692871094</ele>
        <time>2003-12-26T13:36:09Z</time>
      </trkpt>
      <trkpt lat="46.486905" lon="14.9821184">
        <ele>1231.4833984375</ele>
        <time>2003-12-26T13:35:57Z</time>
      </trkpt>
      <trkpt lat="46.4869183" lon="14.981975">
        <ele>1227.97827148437</ele>
        <time>2003-12-26T13:35:52Z</time>
      </trkpt>
      <trkpt lat="46.486935" lon="14.9818934">
        <ele>1234.07421875</ele>
        <time>2003-12-26T13:35:45Z</time>
      </trkpt>
      <trkpt lat="46.4869267" lon="14.9817734">
        <ele>1234.47045898438</ele>
        <time>2003-12-26T13:35:34Z</time>
      </trkpt>
      <trkpt lat="46.4868933" lon="14.981735">
        <ele>1239.07299804688</ele>
        <time>2003-12-26T13:35:22Z</time>
      </trkpt>
      <trkpt lat="46.4869117" lon="14.9816267">
        <ele>1242.97436523438</ele>
        <time>2003-12-26T13:35:16Z</time>
      </trkpt>
      <trkpt lat="46.4869333" lon="14.9814784">
        <ele>1250.28955078125</ele>
        <time>2003-12-26T13:35:02Z</time>
      </trkpt>
      <trkpt lat="46.4869367" lon="14.981355">
        <ele>1248.97900390625</ele>
        <time>2003-12-26T13:34:54Z</time>
      </trkpt>
      <trkpt lat="46.4869517" lon="14.981235">
        <ele>1249.19226074219</ele>
        <time>2003-12-26T13:34:45Z</time>
      </trkpt>
      <trkpt lat="46.4869983" lon="14.9811867">
        <ele>1248.1865234375</ele>
        <time>2003-12-26T13:34:40Z</time>
      </trkpt>
      <trkpt lat="46.48703" lon="14.9810634">
        <ele>1253.48999023438</ele>
        <time>2003-12-26T13:34:25Z</time>
      </trkpt>
      <trkpt lat="46.4870267" lon="14.98093">
        <ele>1245.68713378906</ele>
        <time>2003-12-26T13:34:13Z</time>
      </trkpt>
      <trkpt lat="46.4870333" lon="14.9807917">
        <ele>1247.97314453125</ele>
        <time>2003-12-26T13:34:02Z</time>
      </trkpt>
      <trkpt lat="46.4870483" lon="14.980665">
        <ele>1247.69885253906</ele>
        <time>2003-12-26T13:33:56Z</time>
      </trkpt>
      <trkpt lat="46.4870633" lon="14.980555">
        <ele>1251.99645996094</ele>
        <time>2003-12-26T13:33:48Z</time>
      </trkpt>
      <trkpt lat="46.487105" lon="14.9804767">
        <ele>1264.79809570313</ele>
        <time>2003-12-26T13:33:28Z</time>
      </trkpt>
      <trkpt lat="46.4871367" lon="14.9803634">
        <ele>1268.88244628906</ele>
        <time>2003-12-26T13:33:17Z</time>
      </trkpt>
      <trkpt lat="46.4871267" lon="14.9802367">
        <ele>1270.07104492187</ele>
        <time>2003-12-26T13:33:10Z</time>
      </trkpt>
      <trkpt lat="46.4871483" lon="14.9801567">
        <ele>1267.99853515625</ele>
        <time>2003-12-26T13:33:01Z</time>
      </trkpt>
      <trkpt lat="46.4871983" lon="14.9800534">
        <ele>1267.38891601563</ele>
        <time>2003-12-26T13:32:54Z</time>
      </trkpt>
      <trkpt lat="46.4872483" lon="14.9799417">
        <ele>1264.49328613281</ele>
        <time>2003-12-26T13:32:48Z</time>
      </trkpt>
      <trkpt lat="46.487305" lon="14.97981">
        <ele>1265.07238769531</ele>
        <time>2003-12-26T13:32:37Z</time>
      </trkpt>
      <trkpt lat="46.4873083" lon="14.9796884">
        <ele>1272.57055664063</ele>
        <time>2003-12-26T13:32:26Z</time>
      </trkpt>
      <trkpt lat="46.4873267" lon="14.9796034">
        <ele>1289.79174804687</ele>
        <time>2003-12-26T13:32:09Z</time>
      </trkpt>
      <trkpt lat="46.487385" lon="14.97955">
        <ele>1295.36950683594</ele>
        <time>2003-12-26T13:31:56Z</time>
      </trkpt>
      <trkpt lat="46.4874283" lon="14.9793567">
        <ele>1293.57116699219</ele>
        <time>2003-12-26T13:31:44Z</time>
      </trkpt>
      <trkpt lat="46.4874667" lon="14.9792434">
        <ele>1291.07177734375</ele>
        <time>2003-12-26T13:31:36Z</time>
      </trkpt>
      <trkpt lat="46.48752" lon="14.97913">
        <ele>1293.69311523438</ele>
        <time>2003-12-26T13:31:26Z</time>
      </trkpt>
      <trkpt lat="46.487545" lon="14.9789917">
        <ele>1297.38122558594</ele>
        <time>2003-12-26T13:31:17Z</time>
      </trkpt>
      <trkpt lat="46.4875817" lon="14.978865">
        <ele>1300.79504394531</ele>
        <time>2003-12-26T13:31:08Z</time>
      </trkpt>
      <trkpt lat="46.4876417" lon="14.9787617">
        <ele>1300.18542480469</ele>
        <time>2003-12-26T13:31:01Z</time>
      </trkpt>
      <trkpt lat="46.4877" lon="14.97863">
        <ele>1295.1865234375</ele>
        <time>2003-12-26T13:30:53Z</time>
      </trkpt>
      <trkpt lat="46.4877517" lon="14.9784767">
        <ele>1305.48889160156</ele>
        <time>2003-12-26T13:30:28Z</time>
      </trkpt>
      <trkpt lat="46.487665" lon="14.9785367">
        <ele>1307.37854003906</ele>
        <time>2003-12-26T13:30:22Z</time>
      </trkpt>
      <trkpt lat="46.4875617" lon="14.97855">
        <ele>1309.39025878906</ele>
        <time>2003-12-26T13:30:16Z</time>
      </trkpt>
      <trkpt lat="46.4874817" lon="14.97853">
        <ele>1317.77233886719</ele>
        <time>2003-12-26T13:30:04Z</time>
      </trkpt>
      <trkpt lat="46.4874633" lon="14.9783817">
        <ele>1316.4921875</ele>
        <time>2003-12-26T13:29:54Z</time>
      </trkpt>
      <trkpt lat="46.48746" lon="14.9782817">
        <ele>1315.18151855469</ele>
        <time>2003-12-26T13:29:40Z</time>
      </trkpt>
      <trkpt lat="46.4875367" lon="14.9783434">
        <ele>1311.98107910156</ele>
        <time>2003-12-26T13:29:25Z</time>
      </trkpt>
      <trkpt lat="46.4875917" lon="14.978215">
        <ele>1314.78527832031</ele>
        <time>2003-12-26T13:29:14Z</time>
      </trkpt>
      <trkpt lat="46.4876483" lon="14.9781184">
        <ele>1318.0771484375</ele>
        <time>2003-12-26T13:29:04Z</time>
      </trkpt>
      <trkpt lat="46.4876633" lon="14.977995">
        <ele>1327.76977539063</ele>
        <time>2003-12-26T13:28:52Z</time>
      </trkpt>
      <trkpt lat="46.4876183" lon="14.9778917">
        <ele>1333.19519042969</ele>
        <time>2003-12-26T13:28:41Z</time>
      </trkpt>
      <trkpt lat="46.4875983" lon="14.9777517">
        <ele>1343.5888671875</ele>
        <time>2003-12-26T13:28:13Z</time>
      </trkpt>
      <trkpt lat="46.48769" lon="14.977745">
        <ele>1338.49865722656</ele>
        <time>2003-12-26T13:28:08Z</time>
      </trkpt>
      <trkpt lat="46.4878533" lon="14.977655">
        <ele>1339.77893066406</ele>
        <time>2003-12-26T13:27:54Z</time>
      </trkpt>
      <trkpt lat="46.487945" lon="14.9776217">
        <ele>1340.17504882812</ele>
        <time>2003-12-26T13:27:48Z</time>
      </trkpt>
      <trkpt lat="46.488115" lon="14.9776084">
        <ele>1341.66857910156</ele>
        <time>2003-12-26T13:27:34Z</time>
      </trkpt>
      <trkpt lat="46.48814" lon="14.97756">
        <ele>1347.27697753906</ele>
        <time>2003-12-26T13:27:21Z</time>
      </trkpt>
      <trkpt lat="46.48808" lon="14.9774667">
        <ele>1349.89819335938</ele>
        <time>2003-12-26T13:27:12Z</time>
      </trkpt>
      <trkpt lat="46.48803" lon="14.9773817">
        <ele>1352.0927734375</ele>
        <time>2003-12-26T13:27:04Z</time>
      </trkpt>
      <trkpt lat="46.4879767" lon="14.9772667">
        <ele>1357.39624023438</ele>
        <time>2003-12-26T13:26:54Z</time>
      </trkpt>
      <trkpt lat="46.4878817" lon="14.9771567">
        <ele>1361.48059082031</ele>
        <time>2003-12-26T13:26:46Z</time>
      </trkpt>
      <trkpt lat="46.4878133" lon="14.9770317">
        <ele>1365.07727050781</ele>
        <time>2003-12-26T13:26:36Z</time>
      </trkpt>
      <trkpt lat="46.48774" lon="14.9769267">
        <ele>1364.68103027344</ele>
        <time>2003-12-26T13:26:28Z</time>
      </trkpt>
      <trkpt lat="46.4876767" lon="14.9768084">
        <ele>1369.77124023437</ele>
        <time>2003-12-26T13:26:20Z</time>
      </trkpt>
      <trkpt lat="46.487605" lon="14.9766934">
        <ele>1373.39831542969</ele>
        <time>2003-12-26T13:26:12Z</time>
      </trkpt>
      <trkpt lat="46.4875533" lon="14.9765784">
        <ele>1376.56823730469</ele>
        <time>2003-12-26T13:26:04Z</time>
      </trkpt>
      <trkpt lat="46.48749" lon="14.9765034">
        <ele>1377.48254394531</ele>
        <time>2003-12-26T13:25:54Z</time>
      </trkpt>
      <trkpt lat="46.4874517" lon="14.9764184">
        <ele>1381.17065429688</ele>
        <time>2003-12-26T13:25:44Z</time>
      </trkpt>
      <trkpt lat="46.4873833" lon="14.9763234">
        <ele>1382.4814453125</ele>
        <time>2003-12-26T13:25:36Z</time>
      </trkpt>
      <trkpt lat="46.48732" lon="14.9762267">
        <ele>1383.97485351563</ele>
        <time>2003-12-26T13:25:28Z</time>
      </trkpt>
      <trkpt lat="46.4872783" lon="14.9761117">
        <ele>1388.08972167969</ele>
        <time>2003-12-26T13:25:17Z</time>
      </trkpt>
      <trkpt lat="46.487235" lon="14.9759817">
        <ele>1391.07666015625</ele>
        <time>2003-12-26T13:25:10Z</time>
      </trkpt>
      <trkpt lat="46.4871667" lon="14.97589">
        <ele>1392.17395019531</ele>
        <time>2003-12-26T13:25:01Z</time>
      </trkpt>
      <trkpt lat="46.4870933" lon="14.9757884">
        <ele>1393.17980957031</ele>
        <time>2003-12-26T13:24:52Z</time>
      </trkpt>
      <trkpt lat="46.487045" lon="14.97566">
        <ele>1390.37573242188</ele>
        <time>2003-12-26T13:24:45Z</time>
      </trkpt>
      <trkpt lat="46.4870033" lon="14.97552">
        <ele>1391.47302246094</ele>
        <time>2003-12-26T13:24:34Z</time>
      </trkpt>
      <trkpt lat="46.4869383" lon="14.9753967">
        <ele>1395.892578125</ele>
        <time>2003-12-26T13:24:24Z</time>
      </trkpt>
      <trkpt lat="46.4868517" lon="14.9753367">
        <ele>0</ele>
        <time>2003-12-26T13:24:18Z</time>
      </trkpt>
      <trkpt lat="46.4866767" lon="14.9750734">
        <ele>1407.07873535156</ele>
        <time>2003-12-26T13:21:28Z</time>
      </trkpt>
      <trkpt lat="46.48656" lon="14.9751717">
        <ele>1408.876953125</ele>
        <time>2003-12-26T13:21:20Z</time>
      </trkpt>
      <trkpt lat="46.48646" lon="14.9752017">
        <ele>1412.86987304687</ele>
        <time>2003-12-26T13:21:08Z</time>
      </trkpt>
      <trkpt lat="46.486335" lon="14.9752634">
        <ele>1415.97888183594</ele>
        <time>2003-12-26T13:20:58Z</time>
      </trkpt>
      <trkpt lat="46.4862133" lon="14.97531">
        <ele>1415.88732910156</ele>
        <time>2003-12-26T13:20:49Z</time>
      </trkpt>
      <trkpt lat="46.486115" lon="14.97531">
        <ele>1412.68701171875</ele>
        <time>2003-12-26T13:20:38Z</time>
      </trkpt>
      <trkpt lat="46.4860167" lon="14.9753334">
        <ele>1411.37634277344</ele>
        <time>2003-12-26T13:20:32Z</time>
      </trkpt>
      <trkpt lat="46.4859433" lon="14.9752517">
        <ele>1412.59558105469</ele>
        <time>2003-12-26T13:20:25Z</time>
      </trkpt>
      <trkpt lat="46.4858583" lon="14.9752367">
        <ele>0</ele>
        <time>2003-12-26T13:20:19Z</time>
      </trkpt>
      <trkpt lat="46.48577" lon="14.9751934">
        <ele>1413.38806152344</ele>
        <time>2003-12-26T13:20:12Z</time>
      </trkpt>
      <trkpt lat="46.4856933" lon="14.9752034">
        <ele>1417.59423828125</ele>
        <time>2003-12-26T13:20:04Z</time>
      </trkpt>
      <trkpt lat="46.4856017" lon="14.975235">
        <ele>1419.78894042969</ele>
        <time>2003-12-26T13:19:56Z</time>
      </trkpt>
      <trkpt lat="46.485565" lon="14.9750967">
        <ele>1418.08203125</ele>
        <time>2003-12-26T13:19:52Z</time>
      </trkpt>
      <trkpt lat="46.4855917" lon="14.9749334">
        <ele>1416.89331054688</ele>
        <time>2003-12-26T13:19:48Z</time>
      </trkpt>
      <trkpt lat="46.4855583" lon="14.9748317">
        <ele>1421.37377929688</ele>
        <time>2003-12-26T13:19:42Z</time>
      </trkpt>
      <trkpt lat="46.4854927062988" lon="14.9747581481934">
        <ele>1431.58459472656</ele>
        <time>2003-12-26T13:19:14Z</time>
      </trkpt>
      <trkpt lat="46.4854133" lon="14.97488">
        <ele>1427.4697265625</ele>
        <time>2003-12-26T13:19:04Z</time>
      </trkpt>
      <trkpt lat="46.4853183" lon="14.9748467">
        <ele>1423.78186035156</ele>
        <time>2003-12-26T13:18:57Z</time>
      </trkpt>
      <trkpt lat="46.4852183" lon="14.9749067">
        <ele>1424.57421875</ele>
        <time>2003-12-26T13:18:49Z</time>
      </trkpt>
      <trkpt lat="46.485125" lon="14.9749267">
        <ele>1424.17797851562</ele>
        <time>2003-12-26T13:18:44Z</time>
      </trkpt>
      <trkpt lat="46.4850367" lon="14.9749717">
        <ele>1427.07360839844</ele>
        <time>2003-12-26T13:18:34Z</time>
      </trkpt>
      <trkpt lat="46.48496" lon="14.9749867">
        <ele>1425.39721679688</ele>
        <time>2003-12-26T13:18:25Z</time>
      </trkpt>
      <trkpt lat="46.4848317" lon="14.9748517">
        <ele>1427.19543457031</ele>
        <time>2003-12-26T13:18:12Z</time>
      </trkpt>
      <trkpt lat="46.4847517" lon="14.9748">
        <ele>1430.27404785156</ele>
        <time>2003-12-26T13:18:02Z</time>
      </trkpt>
      <trkpt lat="46.48465" lon="14.97476">
        <ele>1428.59765625</ele>
        <time>2003-12-26T13:17:56Z</time>
      </trkpt>
      <trkpt lat="46.48454" lon="14.9747234">
        <ele>1425.48852539062</ele>
        <time>2003-12-26T13:17:48Z</time>
      </trkpt>
      <trkpt lat="46.4844867" lon="14.974575">
        <ele>1427.07360839844</ele>
        <time>2003-12-26T13:17:38Z</time>
      </trkpt>
      <trkpt lat="46.4843940734863" lon="14.9744682312012">
        <ele>1439.69226074219</ele>
        <time>2003-12-26T13:16:13Z</time>
      </trkpt>
      <trkpt lat="46.4845467" lon="14.97418">
        <ele>1442.37463378906</ele>
        <time>2003-12-26T13:16:00Z</time>
      </trkpt>
      <trkpt lat="46.484525" lon="14.97405">
        <ele>1448.98864746094</ele>
        <time>2003-12-26T13:15:48Z</time>
      </trkpt>
      <trkpt lat="46.4845083" lon="14.9739284">
        <ele>1457.67553710938</ele>
        <time>2003-12-26T13:15:36Z</time>
      </trkpt>
      <trkpt lat="46.4845217" lon="14.9738">
        <ele>1462.67419433594</ele>
        <time>2003-12-26T13:15:24Z</time>
      </trkpt>
      <trkpt lat="46.4846017" lon="14.9737234">
        <ele>1462.36938476563</ele>
        <time>2003-12-26T13:15:13Z</time>
      </trkpt>
      <trkpt lat="46.48466" lon="14.9735917">
        <ele>1462.67419433594</ele>
        <time>2003-12-26T13:15:04Z</time>
      </trkpt>
      <trkpt lat="46.4847117" lon="14.973475">
        <ele>1463.771484375</ele>
        <time>2003-12-26T13:14:56Z</time>
      </trkpt>
      <trkpt lat="46.4847733" lon="14.97336">
        <ele>1469.28845214844</ele>
        <time>2003-12-26T13:14:46Z</time>
      </trkpt>
      <trkpt lat="46.484835" lon="14.9732784">
        <ele>1469.98937988281</ele>
        <time>2003-12-26T13:14:32Z</time>
      </trkpt>
      <trkpt lat="46.484875" lon="14.9731834">
        <ele>1469.37976074219</ele>
        <time>2003-12-26T13:14:20Z</time>
      </trkpt>
      <trkpt lat="46.48491" lon="14.9730667">
        <ele>1475.17102050781</ele>
        <time>2003-12-26T13:14:06Z</time>
      </trkpt>
      <trkpt lat="46.48497" lon="14.9729384">
        <ele>1477.97521972656</ele>
        <time>2003-12-26T13:13:56Z</time>
      </trkpt>
      <trkpt lat="46.48503" lon="14.9728317">
        <ele>1481.69384765625</ele>
        <time>2003-12-26T13:13:46Z</time>
      </trkpt>
      <trkpt lat="46.4850383" lon="14.9727334">
        <ele>1490.47204589844</ele>
        <time>2003-12-26T13:13:34Z</time>
      </trkpt>
      <trkpt lat="46.4852283" lon="14.9725634">
        <ele>1495.19641113281</ele>
        <time>2003-12-26T13:13:17Z</time>
      </trkpt>
      <trkpt lat="46.4853083" lon="14.9724967">
        <ele>1499.76843261719</ele>
        <time>2003-12-26T13:13:10Z</time>
      </trkpt>
      <trkpt lat="46.48545" lon="14.97235">
        <ele>1503.79187011719</ele>
        <time>2003-12-26T13:12:58Z</time>
      </trkpt>
      <trkpt lat="46.4855633" lon="14.9722517">
        <ele>1506.68737792969</ele>
        <time>2003-12-26T13:12:50Z</time>
      </trkpt>
      <trkpt lat="46.485645" lon="14.9721984">
        <ele>1509.49145507812</ele>
        <time>2003-12-26T13:12:42Z</time>
      </trkpt>
      <trkpt lat="46.485715" lon="14.972095">
        <ele>1513.08825683594</ele>
        <time>2003-12-26T13:12:34Z</time>
      </trkpt>
      <trkpt lat="46.48578" lon="14.9718617">
        <ele>1515.28271484375</ele>
        <time>2003-12-26T13:12:22Z</time>
      </trkpt>
      <trkpt lat="46.4858567" lon="14.971685">
        <ele>1519.48901367188</ele>
        <time>2003-12-26T13:12:12Z</time>
      </trkpt>
      <trkpt lat="46.4859267" lon="14.9715667">
        <ele>1523.48181152344</ele>
        <time>2003-12-26T13:12:02Z</time>
      </trkpt>
      <trkpt lat="46.4859717" lon="14.9714434">
        <ele>1526.46887207031</ele>
        <time>2003-12-26T13:11:54Z</time>
      </trkpt>
      <trkpt lat="46.486065" lon="14.9712167">
        <ele>1531.7724609375</ele>
        <time>2003-12-26T13:11:41Z</time>
      </trkpt>
      <trkpt lat="46.48612" lon="14.971065">
        <ele>1530.97985839844</ele>
        <time>2003-12-26T13:11:32Z</time>
      </trkpt>
      <trkpt lat="46.4861733" lon="14.97096">
        <ele>1533.87548828125</ele>
        <time>2003-12-26T13:11:26Z</time>
      </trkpt>
      <trkpt lat="46.4862317" lon="14.9708167">
        <ele>1536.77111816406</ele>
        <time>2003-12-26T13:11:18Z</time>
      </trkpt>
      <trkpt lat="46.4863117" lon="14.970555">
        <ele>1541.58703613281</ele>
        <time>2003-12-26T13:11:04Z</time>
      </trkpt>
      <trkpt lat="46.4863467" lon="14.97043">
        <ele>1545.79321289063</ele>
        <time>2003-12-26T13:10:56Z</time>
      </trkpt>
      <trkpt lat="46.4863833" lon="14.9702934">
        <ele>1547.59143066406</ele>
        <time>2003-12-26T13:10:49Z</time>
      </trkpt>
      <trkpt lat="46.4864133" lon="14.970165">
        <ele>1549.96899414062</ele>
        <time>2003-12-26T13:10:42Z</time>
      </trkpt>
      <trkpt lat="46.4864533" lon="14.97004">
        <ele>1552.98645019531</ele>
        <time>2003-12-26T13:10:36Z</time>
      </trkpt>
      <trkpt lat="46.4865467" lon="14.969775">
        <ele>1550.88342285156</ele>
        <time>2003-12-26T13:10:24Z</time>
      </trkpt>
      <trkpt lat="46.486605" lon="14.9696367">
        <ele>1550.48706054688</ele>
        <time>2003-12-26T13:10:16Z</time>
      </trkpt>
      <trkpt lat="46.48664" lon="14.9695784">
        <ele>1555.88208007813</ele>
        <time>2003-12-26T13:10:05Z</time>
      </trkpt>
      <trkpt lat="46.48664" lon="14.9694684">
        <ele>1557.2841796875</ele>
        <time>2003-12-26T13:09:54Z</time>
      </trkpt>
      <trkpt lat="46.48668" lon="14.969335">
        <ele>1560.08825683594</ele>
        <time>2003-12-26T13:09:45Z</time>
      </trkpt>
      <trkpt lat="46.4867533" lon="14.9692634">
        <ele>1564.87365722656</ele>
        <time>2003-12-26T13:09:36Z</time>
      </trkpt>
      <trkpt lat="46.4867967" lon="14.96923">
        <ele>1568.07409667969</ele>
        <time>2003-12-26T13:09:20Z</time>
      </trkpt>
      <trkpt lat="46.4868433" lon="14.969105">
        <ele>1563.98986816406</ele>
        <time>2003-12-26T13:09:13Z</time>
      </trkpt>
      <trkpt lat="46.486865" lon="14.96898">
        <ele>1569.47619628906</ele>
        <time>2003-12-26T13:09:00Z</time>
      </trkpt>
      <trkpt lat="46.4869" lon="14.9688634">
        <ele>1569.38464355469</ele>
        <time>2003-12-26T13:08:48Z</time>
      </trkpt>
      <trkpt lat="46.4869567" lon="14.9687567">
        <ele>1572.58508300781</ele>
        <time>2003-12-26T13:08:36Z</time>
      </trkpt>
      <trkpt lat="46.4869767" lon="14.9686217">
        <ele>1575.78552246094</ele>
        <time>2003-12-26T13:08:26Z</time>
      </trkpt>
      <trkpt lat="46.4869917" lon="14.9684117">
        <ele>1587.48974609375</ele>
        <time>2003-12-26T13:07:52Z</time>
      </trkpt>
      <trkpt lat="46.48683" lon="14.9685784">
        <ele>0</ele>
        <time>2003-12-26T13:07:42Z</time>
      </trkpt>
      <trkpt lat="46.4867433" lon="14.9686067">
        <ele>1592.67138671875</ele>
        <time>2003-12-26T13:07:36Z</time>
      </trkpt>
      <trkpt lat="46.4866683" lon="14.9686017">
        <ele>1595.4755859375</ele>
        <time>2003-12-26T13:07:25Z</time>
      </trkpt>
      <trkpt lat="46.4865967" lon="14.968655">
        <ele>1600.47424316406</ele>
        <time>2003-12-26T13:07:14Z</time>
      </trkpt>
      <trkpt lat="46.4865267" lon="14.9687084">
        <ele>1603.36987304687</ele>
        <time>2003-12-26T13:07:05Z</time>
      </trkpt>
      <trkpt lat="46.4864267" lon="14.9687567">
        <ele>1606.17407226562</ele>
        <time>2003-12-26T13:06:53Z</time>
      </trkpt>
      <trkpt lat="46.4863017" lon="14.9687934">
        <ele>1608.36853027344</ele>
        <time>2003-12-26T13:06:40Z</time>
      </trkpt>
      <trkpt lat="46.48622" lon="14.9688434">
        <ele>1612.97106933594</ele>
        <time>2003-12-26T13:06:29Z</time>
      </trkpt>
      <trkpt lat="46.48613" lon="14.9688667">
        <ele>1612.66625976563</ele>
        <time>2003-12-26T13:06:20Z</time>
      </trkpt>
      <trkpt lat="46.4860317" lon="14.9688817">
        <ele>1612.39196777344</ele>
        <time>2003-12-26T13:06:12Z</time>
      </trkpt>
      <trkpt lat="46.4859467" lon="14.9688784">
        <ele>1617.26879882813</ele>
        <time>2003-12-26T13:05:57Z</time>
      </trkpt>
      <trkpt lat="46.485865" lon="14.96883">
        <ele>1615.59240722656</ele>
        <time>2003-12-26T13:05:48Z</time>
      </trkpt>
      <trkpt lat="46.4857517" lon="14.9688334">
        <ele>1621.29223632813</ele>
        <time>2003-12-26T13:05:33Z</time>
      </trkpt>
      <trkpt lat="46.485665" lon="14.9688767">
        <ele>1625.77270507813</ele>
        <time>2003-12-26T13:05:24Z</time>
      </trkpt>
      <trkpt lat="46.4855833" lon="14.968885">
        <ele>1630.28381347656</ele>
        <time>2003-12-26T13:05:14Z</time>
      </trkpt>
      <trkpt lat="46.4854983" lon="14.968935">
        <ele>1634.48999023438</ele>
        <time>2003-12-26T13:05:08Z</time>
      </trkpt>
      <trkpt lat="46.4853983" lon="14.9689867">
        <ele>1635.77026367187</ele>
        <time>2003-12-26T13:05:00Z</time>
      </trkpt>
      <trkpt lat="46.4853067" lon="14.9690467">
        <ele>1639.48864746094</ele>
        <time>2003-12-26T13:04:50Z</time>
      </trkpt>
      <trkpt lat="46.4852017" lon="14.969055">
        <ele>1639.67163085938</ele>
        <time>2003-12-26T13:04:40Z</time>
      </trkpt>
      <trkpt lat="46.4851" lon="14.9691067">
        <ele>1641.46984863281</ele>
        <time>2003-12-26T13:04:28Z</time>
      </trkpt>
      <trkpt lat="46.4850117" lon="14.9691067">
        <ele>1646.46862792969</ele>
        <time>2003-12-26T13:04:16Z</time>
      </trkpt>
      <trkpt lat="46.4849233" lon="14.9690834">
        <ele>1652.99145507813</ele>
        <time>2003-12-26T13:04:08Z</time>
      </trkpt>
      <trkpt lat="46.4848317" lon="14.9690934">
        <ele>1653.87536621094</ele>
        <time>2003-12-26T13:03:58Z</time>
      </trkpt>
      <trkpt lat="46.4847483" lon="14.9690517">
        <ele>1652.16845703125</ele>
        <time>2003-12-26T13:03:46Z</time>
      </trkpt>
      <trkpt lat="46.4848" lon="14.9689584">
        <ele>1653.78381347656</ele>
        <time>2003-12-26T13:03:37Z</time>
      </trkpt>
      <trkpt lat="46.4848733" lon="14.9688534">
        <ele>1653.47900390625</ele>
        <time>2003-12-26T13:03:30Z</time>
      </trkpt>
      <trkpt lat="46.48494" lon="14.9687634">
        <ele>1650.97973632813</ele>
        <time>2003-12-26T13:03:18Z</time>
      </trkpt>
      <trkpt lat="46.48496" lon="14.9687817">
        <ele>1658.17297363281</ele>
        <time>2003-12-26T13:02:50Z</time>
      </trkpt>
      <trkpt lat="46.4849517" lon="14.9686617">
        <ele>1657.8681640625</ele>
        <time>2003-12-26T13:02:44Z</time>
      </trkpt>
      <trkpt lat="46.4848767" lon="14.9685884">
        <ele>1662.775390625</ele>
        <time>2003-12-26T13:02:34Z</time>
      </trkpt>
      <trkpt lat="46.4848033" lon="14.968515">
        <ele>1665.3662109375</ele>
        <time>2003-12-26T13:02:26Z</time>
      </trkpt>
      <trkpt lat="46.48472" lon="14.9684667">
        <ele>1669.48095703125</ele>
        <time>2003-12-26T13:02:18Z</time>
      </trkpt>
      <trkpt lat="46.4846517" lon="14.9683817">
        <ele>1672.19384765625</ele>
        <time>2003-12-26T13:02:10Z</time>
      </trkpt>
      <trkpt lat="46.4845583" lon="14.9682217">
        <ele>1678.16772460937</ele>
        <time>2003-12-26T13:01:58Z</time>
      </trkpt>
      <trkpt lat="46.4845167" lon="14.9681">
        <ele>1681.58154296875</ele>
        <time>2003-12-26T13:01:50Z</time>
      </trkpt>
      <trkpt lat="46.4845117" lon="14.96796">
        <ele>1685.17822265625</ele>
        <time>2003-12-26T13:01:41Z</time>
      </trkpt>
      <trkpt lat="46.484535" lon="14.967825">
        <ele>1687.37280273438</ele>
        <time>2003-12-26T13:01:32Z</time>
      </trkpt>
      <trkpt lat="46.4845733" lon="14.9677034">
        <ele>1686.48889160156</ele>
        <time>2003-12-26T13:01:25Z</time>
      </trkpt>
      <trkpt lat="46.48464" lon="14.967505">
        <ele>1689.07971191406</ele>
        <time>2003-12-26T13:01:12Z</time>
      </trkpt>
      <trkpt lat="46.4846717" lon="14.9673684">
        <ele>1689.994140625</ele>
        <time>2003-12-26T13:01:04Z</time>
      </trkpt>
      <trkpt lat="46.48473" lon="14.96725">
        <ele>1692.5849609375</ele>
        <time>2003-12-26T13:00:56Z</time>
      </trkpt>
      <trkpt lat="46.4847667" lon="14.9671317">
        <ele>1692.98107910156</ele>
        <time>2003-12-26T13:00:48Z</time>
      </trkpt>
      <trkpt lat="46.4847967" lon="14.96694">
        <ele>1695.38903808594</ele>
        <time>2003-12-26T13:00:36Z</time>
      </trkpt>
      <trkpt lat="46.4848733" lon="14.9668534">
        <ele>1697.67492675781</ele>
        <time>2003-12-26T13:00:28Z</time>
      </trkpt>
      <trkpt lat="46.4848783" lon="14.9667117">
        <ele>1699.16857910156</ele>
        <time>2003-12-26T13:00:20Z</time>
      </trkpt>
      <trkpt lat="46.4848433" lon="14.9665767">
        <ele>1700.78405761719</ele>
        <time>2003-12-26T13:00:12Z</time>
      </trkpt>
      <trkpt lat="46.4848083" lon="14.9664484">
        <ele>1705.69128417969</ele>
        <time>2003-12-26T13:00:02Z</time>
      </trkpt>
      <trkpt lat="46.48475" lon="14.9663434">
        <ele>1709.07458496094</ele>
        <time>2003-12-26T12:59:53Z</time>
      </trkpt>
      <trkpt lat="46.48467" lon="14.96625">
        <ele>1709.98901367188</ele>
        <time>2003-12-26T12:59:44Z</time>
      </trkpt>
      <trkpt lat="46.4845933" lon="14.9661517">
        <ele>1712.79309082031</ele>
        <time>2003-12-26T12:59:34Z</time>
      </trkpt>
      <trkpt lat="46.48449" lon="14.966015">
        <ele>1719.19384765625</ele>
        <time>2003-12-26T12:59:24Z</time>
      </trkpt>
      <trkpt lat="46.48444" lon="14.9658934">
        <ele>1721.08374023438</ele>
        <time>2003-12-26T12:59:14Z</time>
      </trkpt>
      <trkpt lat="46.48446" lon="14.965765">
        <ele>1723.36975097656</ele>
        <time>2003-12-26T12:59:06Z</time>
      </trkpt>
      <trkpt lat="46.48438" lon="14.965595">
        <ele>1726.47863769531</ele>
        <time>2003-12-26T12:58:54Z</time>
      </trkpt>
      <trkpt lat="46.4843483" lon="14.9654684">
        <ele>1725.99096679688</ele>
        <time>2003-12-26T12:58:45Z</time>
      </trkpt>
      <trkpt lat="46.4843633" lon="14.965325">
        <ele>1725.77758789063</ele>
        <time>2003-12-26T12:58:36Z</time>
      </trkpt>
      <trkpt lat="46.4845067" lon="14.9651917">
        <ele>1727.27111816406</ele>
        <time>2003-12-26T12:58:24Z</time>
      </trkpt>
      <trkpt lat="46.484595" lon="14.9651284">
        <ele>1726.69201660156</ele>
        <time>2003-12-26T12:58:16Z</time>
      </trkpt>
    </trkseg>
  </trk>
</gpx>
